Home > Products > Valid Products > MTR

000
SAUS41 KPHI 272155
MTR12N
METAR K12N 272154Z AUTO VRB05KT M04/M17 A3041 RMK AO1 SLP319
T10391172





000
SAUS41 KPHI 272155
MTR12N
METAR K12N 272154Z AUTO VRB05KT M04/M17 A3041 RMK AO1 SLP319
T10391172





000
SAUS41 KPHI 272155
MTRACY
METAR KACY 272154Z 30008KT 10SM CLR M01/M11 A3045 RMK AO2 SLP313
T10061106





000
SAUS41 KPHI 272155
MTRACY
METAR KACY 272154Z 30008KT 10SM CLR M01/M11 A3045 RMK AO2 SLP313
T10061106





000
SAUS41 KPHI 272056
MTRACY
METAR KACY 272054Z 32006KT 10SM CLR 01/M09 A3043 RMK AO2 SLP304
T00061094 53013





000
SAUS41 KPHI 272055
MTR12N
METAR K12N 272054Z AUTO VRB04KT M03/M17 A3039 RMK AO1 SLP310
T10331167 53009





000
SAUS41 KPHI 272055
MTR12N
METAR K12N 272054Z AUTO VRB04KT M03/M17 A3039 RMK AO1 SLP310
T10331167 53009





000
SAUS41 KPHI 271956
MTRACY
METAR KACY 271954Z 28006KT 10SM BKN039 00/M08 A3041 RMK AO2 SLP298
T00001083





000
SAUS41 KPHI 271956
MTRACY
METAR KACY 271954Z 28006KT 10SM BKN039 00/M08 A3041 RMK AO2 SLP298
T00001083





000
SAUS41 KPHI 271955
MTR12N
METAR K12N 271954Z AUTO VRB06KT M03/M17 A3038 RMK AO1 SLP306
T10281167





000
SAUS41 KPHI 271855
MTR12N
METAR K12N 271854Z AUTO VRB06KT M04/M17 A3036 RMK AO1 SLP301
T10391172





000
SAUS41 KPHI 271855
MTRACY
METAR KACY 271854Z 32007KT 10SM OVC039 00/M08 A3040 RMK AO2 SLP294
T00001083





000
SAUS41 KPHI 271855
MTRACY
METAR KACY 271854Z 32007KT 10SM OVC039 00/M08 A3040 RMK AO2 SLP294
T00001083





000
SAUS41 KPHI 271855
MTR12N
METAR K12N 271854Z AUTO VRB06KT M04/M17 A3036 RMK AO1 SLP301
T10391172





000
SAUS41 KPHI 271757
MTRACY
METAR KACY 271754Z 31007KT 10SM SCT037 M01/M08 A3039 RMK AO2 SLP291
T10061078 10000 21078 51002





000
SAUS41 KPHI 271757
MTRACY
METAR KACY 271754Z 31007KT 10SM SCT037 M01/M08 A3039 RMK AO2 SLP291
T10061078 10000 21078 51002





000
SAUS41 KPHI 271755
MTR12N
METAR K12N 271754Z AUTO 29005KT M04/M17 A3036 RMK AO1 SLP300
T10441172 11044 21128 58003





000
SAUS41 KPHI 271755
MTR12N
METAR K12N 271754Z AUTO 29005KT M04/M17 A3036 RMK AO1 SLP300
T10441172 11044 21128 58003





000
SAUS41 KPHI 271656
MTRACY
METAR KACY 271654Z 31012KT 10SM FEW030 M01/M08 A3039 RMK AO2 SLP291
T10061083





000
SAUS41 KPHI 271656
MTRACY
METAR KACY 271654Z 31012KT 10SM FEW030 M01/M08 A3039 RMK AO2 SLP291
T10061083





000
SAUS41 KPHI 271655
MTR12N
METAR K12N 271654Z AUTO 34006KT M06/M17 A3037 RMK AO1 SLP305
T10561172





000
SAUS41 KPHI 271655
MTR12N
METAR K12N 271654Z AUTO 34006KT M06/M17 A3037 RMK AO1 SLP305
T10561172





000
SAUS41 KPHI 271556
MTRACY
METAR KACY 271554Z AUTO 32007KT 10SM CLR M02/M09 A3040 RMK AO2
SLP294 T10171094 TSNO





000
SAUS41 KPHI 271556
MTRACY
METAR KACY 271554Z AUTO 32007KT 10SM CLR M02/M09 A3040 RMK AO2
SLP294 T10171094 TSNO





000
SAUS41 KPHI 271555
MTR12N
METAR K12N 271554Z AUTO 01007KT M07/M18 A3038 RMK AO1 SLP307
T10671183





000
SAUS41 KPHI 271456
MTRACY
METAR KACY 271454Z AUTO 33008KT 10SM SCT090 M03/M10 A3038 RMK AO2
SLP289 T10331100 51027 TSNO





000
SAUS41 KPHI 271456
MTRACY
METAR KACY 271454Z AUTO 33008KT 10SM SCT090 M03/M10 A3038 RMK AO2
SLP289 T10331100 51027 TSNO





000
SAUS41 KPHI 271455
MTR12N
METAR K12N 271454Z AUTO 02007KT 340V050 M09/M18 A3037 RMK AO1 SLP304
T10891183 51021





000
SAUS41 KPHI 271455
MTR12N
METAR K12N 271454Z AUTO 02007KT 340V050 M09/M18 A3037 RMK AO1 SLP304
T10891183 51021





000
SAUS41 KPHI 271357
MTRACY
METAR KACY 271354Z AUTO 35006KT 10SM BKN090 M04/M11 A3038 RMK AO2
SLP288 T10441106 TSNO





000
SAUS41 KPHI 271357
MTRACY
METAR KACY 271354Z AUTO 35006KT 10SM BKN090 M04/M11 A3038 RMK AO2
SLP288 T10441106 TSNO





000
SAUS41 KPHI 271355
MTR12N
METAR K12N 271354Z AUTO 36007KT M10/M18 A3037 RMK AO1 SLP304
T11001178





000
SAUS41 KPHI 271355
MTR12N
METAR K12N 271354Z AUTO 36007KT M10/M18 A3037 RMK AO1 SLP304
T11001178





000
SAUS41 KPHI 271257
MTRACY
METAR KACY 271254Z 36007KT 10SM BKN090 M06/M11 A3034 RMK AO2 SLP273
T10611106





000
SAUS41 KPHI 271255
MTR12N
METAR K12N 271254Z AUTO 00000KT M11/M17 A3034 RMK AO1 SLP293
T11111167





000
SAUS41 KPHI 271202 COR
MTRACY
METAR KACY 271154Z 35006KT 10SM SCT043 M08/M11 A3030 RMK AO2 SLP261
70014 T10781111 11078 21122 51029





000
SAUS41 KPHI 271155
MTR12N
METAR K12N 271154Z AUTO 01004KT M13/M17 A3031 RMK AO1 SLP283 70002
T11281167 11111 21167 53029





000
SAUS41 KPHI 271059
MTRACY
METAR KACY 271054Z 35003KT 10SM OVC047 M08/M11 A3028 RMK AO2 SLP254
T10831111





000
SAUS41 KPHI 271055
MTR12N
METAR K12N 271054Z AUTO VRB03KT M11/M16 A3028 RMK AO1 SLP272
T11111156





000
SAUS41 KPHI 270956
MTRACY
METAR KACY 270954Z 33003KT 10SM OVC060 M09/M11 A3025 RMK AO2 SLP245
T10891111





000
SAUS41 KPHI 270955
MTR12N
METAR K12N 270954Z AUTO 00000KT M16/M18 A3025 RMK AO1 SLP264
T11611178





000
SAUS41 KPHI 270857
MTRACY
METAR KACY 270854Z 00000KT 10SM SCT060 M12/M14 A3021 RMK AO2 SLP232
T11221139 51016





000
SAUS41 KPHI 270855
MTR12N
METAR K12N 270854Z AUTO 00000KT M16/M18 A3022 RMK AO1 SLP254
T11611178 51026





000
SAUS41 KPHI 270756
MTRACY
METAR KACY 270754Z 00000KT 10SM CLR M09/M11 A3021 RMK AO2 SLP230
T10891106





000
SAUS41 KPHI 270755
MTR12N
METAR K12N 270754Z AUTO 00000KT M16/M18 A3019 RMK AO1 SLP245
T11611183





000
SAUS41 KPHI 270657
MTRACY
METAR KACY 270654Z 30003KT 10SM CLR M09/M11 A3019 RMK AO2 SLP225
T10891106





000
SAUS41 KPHI 270655
MTR12N
METAR K12N 270654Z AUTO 00000KT M16/M17 A3018 RMK AO1 SLP242
T11561172





000
SAUS41 KPHI 270555
MTR12N
METAR K12N 270554Z AUTO 00000KT M14/M16 A3014 RMK AO1 SLP227
T11391161 11061 21144 51015





000
SAUS41 KPHI 270457
MTRACY
METAR KACY 270454Z 30004KT 10SM CLR M08/M10 A3014 RMK AO2 SLP207
T10781100 400001089





000
SAUS41 KPHI 270457
MTRACY
METAR KACY 270454Z 30004KT 10SM CLR M08/M10 A3014 RMK AO2 SLP207
T10781100 400001089





000
SAUS41 KPHI 270455
MTR12N
METAR K12N 270454Z AUTO 00000KT M13/M15 A3013 RMK AO1 SLP224
T11331150 410501133





000
SAUS41 KPHI 270359
MTRACY
METAR KACY 270354Z AUTO 00000KT 10SM CLR M08/M11 A3013 RMK AO2
SLP204 T10781106 TSNO





000
SAUS41 KPHI 270355
MTR12N
METAR K12N 270354Z AUTO 00000KT M13/M15 A3013 RMK AO1 SLP222
T11331150





000
SAUS41 KPHI 270258
MTRACY
METAR KACY 270254Z AUTO 00000KT 10SM CLR M07/M09 A3013 RMK AO2
SLP202 T10671094 51023 TSNO





000
SAUS41 KPHI 270255
MTR12N
METAR K12N 270254Z AUTO 00000KT M11/M13 A3010 RMK AO1 SLP211
T11111133 51026





000
SAUS41 KPHI 270200
MTRACY
METAR KACY 270154Z AUTO 31004KT 10SM CLR M06/M09 A3010 RMK AO2
SLP195 T10611094 TSNO





000
SAUS41 KPHI 270155
MTR12N
METAR K12N 270154Z AUTO 00000KT M10/M13 A3009 RMK AO1 SLP209
T11001128





000
SAUS41 KPHI 270058
MTRACY
METAR KACY 270054Z AUTO 00000KT 10SM CLR M04/M09 A3008 RMK AO2
SLP188 T10391089 TSNO





000
SAUS41 KPHI 270055
MTR12N
METAR K12N 270054Z AUTO 00000KT M07/M12 A3005 RMK AO1 SLP194
T10721117





000
SAUS41 KPHI 262355
MTR12N
METAR K12N 262354Z AUTO 00000KT M06/M11 A3002 RMK AO1 SLP182
T10611111 11050 21078 53020





000
SAUS41 KPHI 262355
MTRACY
METAR KACY 262354Z AUTO 35005KT 10SM CLR M04/M09 A3006 RMK AO2
SLP179 T10391094 10000 21039 53038 TSNO





000
SAUS41 KPHI 262355
MTR12N
METAR K12N 262354Z AUTO 00000KT M06/M11 A3002 RMK AO1 SLP182
T10611111 11050 21078 53020





000
SAUS41 KPHI 262255
MTR12N
METAR K12N 262254Z AUTO 00000KT M06/M11 A3000 RMK AO1 SLP174
T10561111





000
SAUS41 KPHI 262155
MTR12N
METAR K12N 262154Z AUTO 00000KT M05/M11 A2998 RMK AO1 SLP168
T10501111





000
SAUS41 KPHI 262059
MTRACY
METAR KACY 262054Z 01008KT 10SM OVC055 00/M10 A2995 RMK AO2 SLP142
T00001100 53030





000
SAUS41 KPHI 261955
MTRACY
METAR KACY 261954Z 02011KT 10SM OVC055 M01/M09 A2990 RMK AO2 SLP126
T10061089





000
SAUS41 KPHI 261955
MTR12N
METAR K12N 261954Z AUTO VRB05KT M06/M12 A2994 RMK AO1 SLP154
T10561117





000
SAUS41 KPHI 261857
MTRACY
METAR KACY 261854Z 03014KT 10SM OVC055 M01/M08 A2987 RMK AO2 SLP114
T10061083





000
SAUS41 KPHI 261855
MTR12N
METAR K12N 261854Z AUTO VRB04KT M07/M12 A2992 RMK AO1 SLP148
T10721117





000
SAUS41 KPHI 261757
MTRACY
METAR KACY 261754Z 04015KT 10SM OVC055 M01/M07 A2986 RMK AO2 SNE00
SLP111 P0000 60014 T10061072 11006 21039 56026





000
SAUS41 KPHI 261755
MTR12N
METAR K12N 261754Z AUTO 03008G14KT M08/M12 A2993 RMK AO1 SLP153
60002 T10781117 11078 21089 58019





000
SAUS41 KPHI 261755
MTR12N
METAR K12N 261754Z AUTO 03008G14KT M08/M12 A2993 RMK AO1 SLP153
60002 T10781117 11078 21089 58019





000
SAUS41 KPHI 261712
MTRACY
SPECI KACY 261709Z 04013G22KT 10SM FEW019 SCT027 BKN055 M01/M07
A2987 RMK AO2 SNE00 P0000 T10111067





000
SAUS41 KPHI 261657
MTRACY
METAR KACY 261654Z 03018G25KT 7SM -SN SCT017 BKN026 BKN032 M02/M07
A2988 RMK AO2 PK WND 03027/1625 SLP117 P0000 T10221067





000
SAUS41 KPHI 261657
MTRACY
METAR KACY 261654Z 03018G25KT 7SM -SN SCT017 BKN026 BKN032 M02/M07
A2988 RMK AO2 PK WND 03027/1625 SLP117 P0000 T10221067





000
SAUS41 KPHI 261655
MTR12N
METAR K12N 261654Z AUTO VRB04KT M08/M12 A2998 RMK AO1 SLP168 P0002
T10781117





000
SAUS41 KPHI 261655
MTR12N
METAR K12N 261654Z AUTO VRB04KT M08/M12 A2998 RMK AO1 SLP168 P0002
T10781117





000
SAUS41 KPHI 261646
MTRACY
SPECI KACY 261640Z 04019KT 4SM -SN SCT016 BKN026 OVC033 M03/M07
A2988 RMK AO2 PK WND 03027/1625 P0000 T10281067





000
SAUS41 KPHI 261646
MTRACY
SPECI KACY 261640Z 04019KT 4SM -SN SCT016 BKN026 OVC033 M03/M07
A2988 RMK AO2 PK WND 03027/1625 P0000 T10281067





000
SAUS41 KPHI 261638
MTRACY
SPECI KACY 261633Z 03020G27KT 2 1/2SM -SN SCT014 BKN026 OVC033
M03/M07 A2988 RMK AO2 PK WND 03027/1625 P0000 T10281067





000
SAUS41 KPHI 261628
MTRACY
SPECI KACY 261626Z 02020G27KT 1 3/4SM -SN BKN014 OVC028 M03/M06
A2989 RMK AO2 PK WND 03027/1625 P0000 T10281061





000
SAUS41 KPHI 261628
MTRACY
SPECI KACY 261626Z 02020G27KT 1 3/4SM -SN BKN014 OVC028 M03/M06
A2989 RMK AO2 PK WND 03027/1625 P0000 T10281061





000
SAUS41 KPHI 261621
MTRACY
SPECI KACY 261615Z 02015G23KT 1 1/4SM -SN BKN012 BKN023 OVC030
M03/M06 A2989 RMK AO2 P0000 T10331061





000
SAUS41 KPHI 261610
MTRACY
SPECI KACY 261607Z 02016G21KT 1 1/2SM -SN BKN012 BKN023 OVC030
M03/M06 A2990 RMK AO2 P0000 T10331061





000
SAUS41 KPHI 261557
MTRACY
METAR KACY 261554Z 03017G21KT 1SM -SN BR SCT011 BKN020 OVC032
M04/M06 A2990 RMK AO2 SLP126 P0001 T10391061





000
SAUS41 KPHI 261557
MTRACY
METAR KACY 261554Z 03017G21KT 1SM -SN BR SCT011 BKN020 OVC032
M04/M06 A2990 RMK AO2 SLP126 P0001 T10391061





000
SAUS41 KPHI 261546
MTRACY
SPECI KACY 261543Z 02016KT 1 1/4SM -SN BR FEW010 BKN020 OVC029
M04/M06 A2991 RMK AO2 P0001 T10391061





000
SAUS41 KPHI 261526
MTRACY
SPECI KACY 261524Z 03014KT 3/4SM -SN BR FEW009 BKN016 OVC027 M04/M06
A2992 RMK AO2 P0000 T10391061





000
SAUS41 KPHI 261519
MTRACY
SPECI KACY 261516Z 03014KT 3/4SM -SN BR FEW011 OVC016 M04/M06 A2992
RMK AO2 P0000 T10391061





000
SAUS41 KPHI 261457
MTRACY
METAR KACY 261454Z 02013KT 3/4SM -SN BR SCT009 OVC014 M04/M06 A2994
RMK AO2 SLP138 P0003 60013 T10391056 51008





000
SAUS41 KPHI 261455
MTR12N
METAR K12N 261454Z AUTO VRB04KT M08/M14 A2999 RMK AO1 SLP174
T10831144 55001





000
SAUS41 KPHI 261448
MTRACY
SPECI KACY 261446Z 03012KT 1/2SM SN FZFG FEW009 OVC014 M04/M06 A2993
RMK AO2 P0003 T10391056





000
SAUS41 KPHI 261448
MTRACY
SPECI KACY 261446Z 03012KT 1/2SM SN FZFG FEW009 OVC014 M04/M06 A2993
RMK AO2 P0003 T10391056





000
SAUS41 KPHI 261438
MTRACY
SPECI KACY 261435Z 04016G22KT 1/2SM SN FZFG FEW009 OVC015 M04/M06
A2993 RMK AO2 P0002 T10391056





000
SAUS41 KPHI 261403
MTRACY
SPECI KACY 261401Z AUTO 03012KT 3/4SM -SN BR FEW009 OVC013 M04/M06
A2994 RMK AO2 P0001 T10391056 TSNO





000
SAUS41 KPHI 261357
MTRACY
METAR KACY 261354Z AUTO 03014G24KT 1/2SM SN FZFG VV013 M04/M06 A2993
RMK AO2 SLP136 P0005 T10391056 TSNO





000
SAUS41 KPHI 261345
MTRACY
SPECI KACY 261343Z AUTO 03018G22KT 1/2SM SN FZFG VV010 M04/M06 A2992
RMK AO2 P0005 T10391056 TSNO





000
SAUS41 KPHI 261322
MTRACY
SPECI KACY 261319Z AUTO 03012KT 1/4SM +SN FZFG VV009 M04/M05 A2993
RMK AO2 P0002 T10391050 TSNO





000
SAUS41 KPHI 261322
MTRACY
SPECI KACY 261319Z AUTO 03012KT 1/4SM +SN FZFG VV009 M04/M05 A2993
RMK AO2 P0002 T10391050 TSNO





000
SAUS41 KPHI 261315
MTRACY
SPECI KACY 261312Z AUTO 03011G19KT 1/4SM SN FZFG VV010 M03/M05 A2993
RMK AO2 P0002 T10331050 TSNO





000
SAUS41 KPHI 261315
MTRACY
SPECI KACY 261312Z AUTO 03011G19KT 1/4SM SN FZFG VV010 M03/M05 A2993
RMK AO2 P0002 T10331050 TSNO





000
SAUS41 KPHI 261255
MTRACY
METAR KACY 261254Z AUTO 03014KT 1/2SM SN FZFG VV011 M03/M05 A2992
RMK AO2 SLP133 P0005 T10331050 TSNO





000
SAUS41 KPHI 261255
MTR12N
METAR K12N 261254Z AUTO VRB04KT M09/M16 A2999 RMK AO1 SLP173
T10891156





000
SAUS41 KPHI 261248
MTRACY
SPECI KACY 261240Z AUTO 03012KT 1/2SM SN FZFG OVC011 M03/M04 A2992
RMK AO2 P0004 T10281044 TSNO





000
SAUS41 KPHI 261248
MTRACY
SPECI KACY 261240Z AUTO 03012KT 1/2SM SN FZFG OVC011 M03/M04 A2992
RMK AO2 P0004 T10281044 TSNO





000
SAUS41 KPHI 261219
MTRACY
SPECI KACY 261216Z AUTO 03012G20KT 1/2SM SN FZFG OVC009 M02/M04
A2992 RMK AO2 P0002 T10221039 TSNO





000
SAUS41 KPHI 261219
MTRACY
SPECI KACY 261216Z AUTO 03012G20KT 1/2SM SN FZFG OVC009 M02/M04
A2992 RMK AO2 P0002 T10221039 TSNO





000
SAUS41 KPHI 261211
MTRACY
SPECI KACY 261206Z AUTO 03009KT 1SM -SN BR BKN007 OVC012 M02/M03
A2991 RMK AO2 CIG 005V011 P0001 T10221033 TSNO





000
SAUS41 KPHI 261211
MTRACY
SPECI KACY 261206Z AUTO 03009KT 1SM -SN BR BKN007 OVC012 M02/M03
A2991 RMK AO2 CIG 005V011 P0001 T10221033 TSNO





000
SAUS41 KPHI 261159
MTRACY
METAR KACY 261154Z AUTO 02009KT 3/4SM -SN BR BKN008 OVC011 M02/M03
A2991 RMK AO2 SLP130 P0003 60003 70003 T10171033 11006 21022 55004
TSNO





000
SAUS41 KPHI 261159
MTRACY
METAR KACY 261154Z AUTO 02009KT 3/4SM -SN BR BKN008 OVC011 M02/M03
A2991 RMK AO2 SLP130 P0003 60003 70003 T10171033 11006 21022 55004
TSNO





000
SAUS41 KPHI 261155
MTR12N
METAR K12N 261154Z AUTO 04005KT M09/M17 A3000 RMK AO1 SLP173
T10891167 11056 21089 53000





000
SAUS41 KPHI 261155
MTR12N
METAR K12N 261154Z AUTO 04005KT M09/M17 A3000 RMK AO1 SLP173
T10891167 11056 21089 53000





000
SAUS41 KPHI 261140
MTRACY
SPECI KACY 261139Z AUTO 01008KT 3/4SM -SN BR BKN006 OVC014 M02/M03
A2990 RMK AO2 P0002 T10171028 TSNO





000
SAUS41 KPHI 261140
MTRACY
SPECI KACY 261139Z AUTO 01008KT 3/4SM -SN BR BKN006 OVC014 M02/M03
A2990 RMK AO2 P0002 T10171028 TSNO





000
SAUS41 KPHI 261139
MTRACY
SPECI KACY 261134Z AUTO 03008KT 3/4SM -SN BR SCT006 OVC016 M01/M03
A2991 RMK AO2 P0001 T10111028 TSNO





000
SAUS41 KPHI 261139
MTRACY
SPECI KACY 261134Z AUTO 03008KT 3/4SM -SN BR SCT006 OVC016 M01/M03
A2991 RMK AO2 P0001 T10111028 TSNO





000
SAUS41 KPHI 261122
MTRACY
SPECI KACY 261117Z AUTO 06009KT 1 1/4SM -SN OVC020 M01/M04 A2992 RMK
AO2 P0000 T10111039 TSNO





000
SAUS41 KPHI 261110
MTRACY
SPECI KACY 261107Z AUTO 06011KT 2 1/2SM -SN OVC024 M01/M05 A2991 RMK
AO2 P0000 T10111050 TSNO





000
SAUS41 KPHI 261110
MTRACY
SPECI KACY 261107Z AUTO 06011KT 2 1/2SM -SN OVC024 M01/M05 A2991 RMK
AO2 P0000 T10111050 TSNO





000
SAUS41 KPHI 261056
MTRACY
METAR KACY 261054Z AUTO 06009KT 4SM -SN OVC028 M01/M06 A2990 RMK AO2
SNB41 SLP124 P0000 T10111061 TSNO





000
SAUS41 KPHI 261056
MTRACY
METAR KACY 261054Z AUTO 06009KT 4SM -SN OVC028 M01/M06 A2990 RMK AO2
SNB41 SLP124 P0000 T10111061 TSNO





000
SAUS41 KPHI 261055
MTR12N
METAR K12N 261054Z AUTO VRB05KT M08/M17 A2999 RMK AO1 SLP169
T10831167





000
SAUS41 KPHI 261055
MTR12N
METAR K12N 261054Z AUTO VRB05KT M08/M17 A2999 RMK AO1 SLP169
T10831167





000
SAUS41 KPHI 260956
MTRACY
METAR KACY 260954Z AUTO 06004KT 10SM BKN065 OVC080 M01/M07 A2993 RMK
AO2 SLP134 T10111067 TSNO





000
SAUS41 KPHI 260956
MTRACY
METAR KACY 260954Z AUTO 06004KT 10SM BKN065 OVC080 M01/M07 A2993 RMK
AO2 SLP134 T10111067 TSNO





000
SAUS41 KPHI 260955
MTR12N
METAR K12N 260954Z AUTO 04004KT M07/M16 A2997 RMK AO1 SLP162
T10721156





000
SAUS41 KPHI 260955
MTR12N
METAR K12N 260954Z AUTO 04004KT M07/M16 A2997 RMK AO1 SLP162
T10721156





000
SAUS41 KPHI 260857
MTRACY
METAR KACY 260854Z AUTO 10SM OVC075 M02/M06 A2992 RMK AO2 SLP134
T10171056 58019 TSNO





000
SAUS41 KPHI 260857
MTRACY
METAR KACY 260854Z AUTO 10SM OVC075 M02/M06 A2992 RMK AO2 SLP134
T10171056 58019 TSNO





000
SAUS41 KPHI 260855
MTR12N
METAR K12N 260854Z AUTO VRB03KT M07/M17 A2999 RMK AO1 SLP170
T10721172 55003





000
SAUS41 KPHI 260855
MTR12N
METAR K12N 260854Z AUTO VRB03KT M07/M17 A2999 RMK AO1 SLP170
T10721172 55003





000
SAUS41 KPHI 260756
MTRACY
METAR KACY 260754Z AUTO 10SM OVC120 M02/M06 A2995 RMK AO2 PK WND
33027/0728 SLP143 T10221056 TSNO





000
SAUS41 KPHI 260755
MTR12N
METAR K12N 260754Z AUTO VRB03KT M07/M17 A2997 RMK AO1 PRESFR SLP162
T10721167





000
SAUS41 KPHI 260659
MTRACY
METAR KACY 260654Z 00000KT 10SM CLR M02/M06 A2996 RMK AO2 SLP145
T10171061





000
SAUS41 KPHI 260659
MTRACY
METAR KACY 260654Z 00000KT 10SM CLR M02/M06 A2996 RMK AO2 SLP145
T10171061





000
SAUS41 KPHI 260655
MTR12N
METAR K12N 260654Z AUTO VRB05KT M06/M17 A2999 RMK AO1 SLP170
T10611172





000
SAUS41 KPHI 260655
MTR12N
METAR K12N 260654Z AUTO VRB05KT M06/M17 A2999 RMK AO1 SLP170
T10611172





000
SAUS41 KPHI 260557
MTRACY
METAR KACY 260554Z 08003KT 10SM CLR M02/M06 A2998 RMK AO2 SLP153
T10221061 10000 21028 56006





000
SAUS41 KPHI 260557
MTRACY
METAR KACY 260554Z 08003KT 10SM CLR M02/M06 A2998 RMK AO2 SLP153
T10221061 10000 21028 56006





000
SAUS41 KPHI 260555
MTR12N
METAR K12N 260554Z AUTO 36005KT M06/M16 A3000 RMK AO1 SLP173
T10561161 11050 21100 53009





000
SAUS41 KPHI 260555
MTR12N
METAR K12N 260554Z AUTO 36005KT M06/M16 A3000 RMK AO1 SLP173
T10561161 11050 21100 53009





000
SAUS41 KPHI 260457
MTRACY
METAR KACY 260454Z 10SM CLR M02/M06 A3001 RMK AO2 SLP163 T10171061
400391111





000
SAUS41 KPHI 260457
MTRACY
METAR KACY 260454Z 10SM CLR M02/M06 A3001 RMK AO2 SLP163 T10171061
400391111





000
SAUS41 KPHI 260455
MTR12N
METAR K12N 260454Z AUTO 35003KT M08/M12 A2999 RMK AO1 SLP169
T10831122 400171172





000
SAUS41 KPHI 260455
MTR12N
METAR K12N 260454Z AUTO 35003KT M08/M12 A2999 RMK AO1 SLP169
T10831122 400171172





000
SAUS41 KPHI 260357
MTRACY
METAR KACY 260354Z 09003KT 10SM CLR M02/M07 A2996 RMK AO2 SLP147
T10221072





000
SAUS41 KPHI 260355
MTR12N
METAR K12N 260354Z AUTO 01003KT M09/M12 A2995 RMK AO1 SLP156
T10891122





000
SAUS41 KPHI 260257
MTRACY
METAR KACY 260254Z 00000KT 10SM CLR M01/M08 A3000 RMK AO2 SLP158
T10111083 51005





000
SAUS41 KPHI 260257
MTRACY
METAR KACY 260254Z 00000KT 10SM CLR M01/M08 A3000 RMK AO2 SLP158
T10111083 51005





000
SAUS41 KPHI 260255
MTR12N
METAR K12N 260254Z AUTO 00000KT M10/M12 A2998 RMK AO1 SLP167
T11001122 51026





000
SAUS41 KPHI 260255
MTR12N
METAR K12N 260254Z AUTO 00000KT M10/M12 A2998 RMK AO1 SLP167
T11001122 51026





000
SAUS41 KPHI 260157
MTRACY
METAR KACY 260154Z 00000KT 10SM CLR M01/M09 A3000 RMK AO2 SLP158
T10061089





000
SAUS41 KPHI 260155
MTR12N
METAR K12N 260154Z AUTO 00000KT M08/M12 A2996 RMK AO1 SLP162
T10831117





000
SAUS41 KPHI 260155
MTR12N
METAR K12N 260154Z AUTO 00000KT M08/M12 A2996 RMK AO1 SLP162
T10831117





000
SAUS41 KPHI 260057
MTRACY
METAR KACY 260054Z 22005KT 10SM CLR M01/M09 A3000 RMK AO2 SLP161
T10061089





000
SAUS41 KPHI 260057
MTRACY
METAR KACY 260054Z 22005KT 10SM CLR M01/M09 A3000 RMK AO2 SLP161
T10061089





000
SAUS41 KPHI 260055
MTR12N
METAR K12N 260054Z AUTO 00000KT M07/M11 A2995 RMK AO1 SLP160
T10671111





000
SAUS41 KPHI 260055
MTR12N
METAR K12N 260054Z AUTO 00000KT M07/M11 A2995 RMK AO1 SLP160
T10671111





000
SAUS41 KPHI 252357
MTRACY
METAR KACY 252354Z 21005KT 10SM CLR 00/M09 A2998 RMK AO2 SLP154
T00001094 10039 21006 53025





000
SAUS41 KPHI 252357
MTRACY
METAR KACY 252354Z 21005KT 10SM CLR 00/M09 A2998 RMK AO2 SLP154
T00001094 10039 21006 53025





000
SAUS41 KPHI 252355
MTR12N
METAR K12N 252354Z AUTO 00000KT M05/M11 A2990 RMK AO1 SLP144
T10501111 10017 21056 53017





000
SAUS41 KPHI 252355
MTR12N
METAR K12N 252354Z AUTO 00000KT M05/M11 A2990 RMK AO1 SLP144
T10501111 10017 21056 53017





000
SAUS41 KPHI 252255
MTR12N
METAR K12N 252254Z AUTO 00000KT M02/M12 A2987 RMK AO1 SLP133
T10171117





000
SAUS41 KPHI 252255
MTRACY
METAR KACY 252254Z 21004KT 10SM CLR 01/M10 A2994 RMK AO2 SLP138
T00061100





000
SAUS41 KPHI 252255
MTR12N
METAR K12N 252254Z AUTO 00000KT M02/M12 A2987 RMK AO1 SLP133
T10171117





000
SAUS41 KPHI 252255
MTRACY
METAR KACY 252254Z 21004KT 10SM CLR 01/M10 A2994 RMK AO2 SLP138
T00061100





000
SAUS41 KPHI 252158
MTRACY
METAR KACY 252154Z AUTO 25009KT 10SM CLR 03/M11 A2991 RMK AO2 SLP129
T00281106 TSNO





000
SAUS41 KPHI 252158
MTRACY
METAR KACY 252154Z AUTO 25009KT 10SM CLR 03/M11 A2991 RMK AO2 SLP129
T00281106 TSNO





000
SAUS41 KPHI 252155
MTR12N
METAR K12N 252154Z AUTO VRB05KT 01/M12 A2985 RMK AO1 SLP126
T00111122





000
SAUS41 KPHI 252055
MTR12N
METAR K12N 252054Z AUTO VRB06KT 01/M12 A2985 RMK AO1 SLP122
T00111122 52009





000
SAUS41 KPHI 252055
MTR12N
METAR K12N 252054Z AUTO VRB06KT 01/M12 A2985 RMK AO1 SLP122
T00111122 52009





000
SAUS41 KPHI 252055
MTRACY
METAR KACY 252054Z 29012KT 10SM CLR 03/M11 A2991 RMK AO2 SLP129
T00281106 53001





000
SAUS41 KPHI 251957
MTRACY
METAR KACY 251954Z 30013KT 10SM CLR 03/M11 A2990 RMK AO2 SLP125
T00331106





000
SAUS41 KPHI 251957
MTRACY
METAR KACY 251954Z 30013KT 10SM CLR 03/M11 A2990 RMK AO2 SLP125
T00331106





000
SAUS41 KPHI 251955
MTR12N
METAR K12N 251954Z AUTO VRB04KT 01/M12 A2983 RMK AO1 SLP117
T00111122





000
SAUS41 KPHI 251901
MTRACY
METAR KACY 251854Z 28014KT 10SM CLR 03/M11 A2989 RMK AO2 SLP123
T00331106





000
SAUS41 KPHI 251855
MTR12N
METAR K12N 251854Z AUTO 22010G18KT 01/M12 A2983 RMK AO1 SLP116
T00061122





000
SAUS41 KPHI 251755
MTR12N
METAR K12N 251754Z AUTO 22010G18KT 00/M12 A2982 RMK AO1 SLP112
T00001122 10011 21172 55001





000
SAUS41 KPHI 251656
MTRACY
METAR KACY 251654Z 26013G18KT 10SM CLR 03/M11 A2990 RMK AO2 SLP126
T00281111





000
SAUS41 KPHI 251655
MTR12N
METAR K12N 251654Z AUTO VRB03KT 01/M11 A2981 RMK AO1 SLP109
T00061111





000
SAUS41 KPHI 251555
MTR12N
METAR K12N 251554Z AUTO 23010G15KT M02/M12 A2982 RMK AO1 SLP112
T10171122





000
SAUS41 KPHI 251555
MTRACY
METAR KACY 251554Z 28015G20KT 10SM CLR 02/M11 A2991 RMK AO2 SLP129
T00221106





000
SAUS41 KPHI 251457
MTR12N
METAR K12N 251454Z AUTO VRB03KT M03/M13 A2982 RMK AO1 SLP114
T10331128 50016





000
SAUS41 KPHI 251457
MTRACY
METAR KACY 251454Z 31011KT 10SM CLR 01/M09 A2990 RMK AO2 SLP124
T00111094 51016





000
SAUS41 KPHI 251359
MTRACY
METAR KACY 251354Z 30011KT 10SM CLR M03/M08 A2989 RMK AO2 SLP122
T10331083





000
SAUS41 KPHI 251359
MTRACY
METAR KACY 251354Z 30011KT 10SM CLR M03/M08 A2989 RMK AO2 SLP122
T10331083





000
SAUS41 KPHI 251355
MTR12N
METAR K12N 251354Z AUTO VRB06KT M06/M14 A2982 RMK AO1 SLP115
T10611144





000
SAUS41 KPHI 251355
MTR12N
METAR K12N 251354Z AUTO VRB06KT M06/M14 A2982 RMK AO1 SLP115
T10611144





000
SAUS41 KPHI 251257
MTRACY
METAR KACY 251254Z 26006KT 10SM CLR M06/M09 A2988 RMK AO2 SLP118
T10611089





000
SAUS41 KPHI 251257
MTRACY
METAR KACY 251254Z 26006KT 10SM CLR M06/M09 A2988 RMK AO2 SLP118
T10611089





000
SAUS41 KPHI 251255
MTR12N
METAR K12N 251254Z AUTO 17003KT M14/M16 A2981 RMK AO1 SLP114
T11441161





000
SAUS41 KPHI 251255
MTR12N
METAR K12N 251254Z AUTO 17003KT M14/M16 A2981 RMK AO1 SLP114
T11441161





000
SAUS41 KPHI 251203 COR
MTRACY
METAR KACY 251154Z 23005KT 8SM CLR M08/M09 A2985 RMK AO2 SLP109
I1000 I6000 T10781094 11078 21111 53025





000
SAUS41 KPHI 251203 COR
MTRACY
METAR KACY 251154Z 23005KT 8SM CLR M08/M09 A2985 RMK AO2 SLP109
I1000 I6000 T10781094 11078 21111 53025





000
SAUS41 KPHI 251155
MTR12N
METAR K12N 251154Z AUTO 18003KT M17/M19 A2977 RMK AO1 SLP103
T11721189 11111 21172 53019





000
SAUS41 KPHI 251155
MTR12N
METAR K12N 251154Z AUTO 18003KT M17/M19 A2977 RMK AO1 SLP103
T11721189 11111 21172 53019





000
SAUS41 KPHI 251056
MTRACY
METAR KACY 251054Z 25006KT 9SM CLR M08/M09 A2982 RMK AO2 SLP099
I1000 T10781094





000
SAUS41 KPHI 251055
MTR12N
METAR K12N 251054Z AUTO 00000KT M17/M18 A2975 RMK AO1 SLP096
T11671183





000
SAUS41 KPHI 250959
MTRACY
METAR KACY 250954Z 00000KT 10SM CLR M11/M13 A2979 RMK AO2 SLP091
I1000 T11111133





000
SAUS41 KPHI 250955
MTR12N
METAR K12N 250954Z AUTO 00000KT M17/M18 A2972 RMK AO1 SLP085
T11671183





000
SAUS41 KPHI 250858
MTRACY
METAR KACY 250854Z 00000KT 10SM CLR M10/M12 A2978 RMK AO2 SLP084
I1000 I3000 T11001122 56019





000
SAUS41 KPHI 250855
MTR12N
METAR K12N 250854Z AUTO 00000KT M14/M17 A2972 RMK AO1 SLP083
T11441172 56017





000
SAUS41 KPHI 250759
MTRACY
METAR KACY 250754Z 00000KT 9SM CLR M09/M11 A2979 RMK AO2 SLP087
T10941106





000
SAUS41 KPHI 250755
MTR12N
METAR K12N 250754Z AUTO 00000KT M13/M16 A2972 RMK AO1 SLP084
T11281161





000
SAUS41 KPHI 250656
MTRACY
METAR KACY 250654Z 00000KT 10SM CLR M08/M11 A2982 RMK AO2 SLP098
T10831106





000
SAUS41 KPHI 250655
MTR12N
METAR K12N 250654Z AUTO 00000KT M12/M16 A2976 RMK AO1 SLP095
T11221156





000
SAUS41 KPHI 250558
MTRACY
METAR KACY 250554Z 32003KT 10SM CLR M08/M09 A2983 RMK AO2 SLP103
60000 T10781094 11044 21078 58021





000
SAUS41 KPHI 250555
MTR12N
METAR K12N 250554Z AUTO 00000KT M12/M16 A2977 RMK AO1 SLP100
T11171156 11078 21117 56026





000
SAUS41 KPHI 250513
MTRACY
SPECI KACY 250510Z 00000KT 10SM SCT011 OVC055 M06/M09 A2984 RMK AO2
T10611089





000
SAUS41 KPHI 250457
MTRACY
METAR KACY 250454Z 00000KT 10SM BKN012 OVC060 M06/M08 A2985 RMK AO2
SLP109 T10611083 410441156





000
SAUS41 KPHI 250455
MTR12N
METAR K12N 250454Z AUTO 00000KT M09/M16 A2980 RMK AO1 SLP109
T10941161 410721256





000
SAUS41 KPHI 250419
MTRACY
SPECI KACY 250414Z 33004KT 9SM OVC014 M06/M08 A2987 RMK AO2
T10561083





000
SAUS41 KPHI 250358
MTRACY
METAR KACY 250354Z 33003KT 10SM OVC016 M06/M08 A2988 RMK AO2 SNE0255
SLP118 P0000 T10561078





000
SAUS41 KPHI 250358
MTRACY
METAR KACY 250354Z 33003KT 10SM OVC016 M06/M08 A2988 RMK AO2 SNE0255
SLP118 P0000 T10561078





000
SAUS41 KPHI 250355
MTR12N
METAR K12N 250354Z AUTO 19004KT M09/M16 A2982 RMK AO1 SLP118
T10891156





000
SAUS41 KPHI 250355
MTR12N
METAR K12N 250354Z AUTO 19004KT M09/M16 A2982 RMK AO1 SLP118
T10891156





000
SAUS41 KPHI 250322
MTRACY
SPECI KACY 250319Z 33003KT 10SM BKN018 OVC110 M06/M07 A2989 RMK AO2
SNE0255 P0000 T10561072





000
SAUS41 KPHI 250257
MTRACY
METAR KACY 250254Z 00000KT 7SM -SN FEW021 BKN042 OVC110 M05/M07
A2990 RMK AO2 SLP124 P0000 60000 T10501072 58030





000
SAUS41 KPHI 250257
MTRACY
METAR KACY 250254Z 00000KT 7SM -SN FEW021 BKN042 OVC110 M05/M07
A2990 RMK AO2 SLP124 P0000 60000 T10501072 58030





000
SAUS41 KPHI 250255
MTR12N
METAR K12N 250254Z AUTO 20003KT M09/M16 A2985 RMK AO1 SLP129
T10941156 58026





000
SAUS41 KPHI 250255
MTR12N
METAR K12N 250254Z AUTO 20003KT M09/M16 A2985 RMK AO1 SLP129
T10941156 58026





000
SAUS41 KPHI 250157
MTRACY
METAR KACY 250154Z 25004KT 5SM -SN FEW021 BKN036 OVC100 M04/M08
A2993 RMK AO2 SNB31 SLP136 P0000 T10441078





000
SAUS41 KPHI 250155
MTR12N
METAR K12N 250154Z AUTO 19003KT M08/M16 A2988 RMK AO1 SLP140
T10831156





000
SAUS41 KPHI 250057
MTRACY
METAR KACY 250054Z 00000KT 10SM BKN080 BKN100 M05/M08 A2997 RMK AO2
SLP149 T10501083





000
SAUS41 KPHI 250055
MTR12N
METAR K12N 250054Z AUTO 00000KT M09/M18 A2991 RMK AO1 SLP153
T10891183





000
SAUS41 KPHI 242359
MTRACY
METAR KACY 242354Z 15003KT 10SM OVC070 M06/M09 A2999 RMK AO2 SLP155
T10611094 11044 21078 57035





000
SAUS41 KPHI 242355
MTR12N
METAR K12N 242354Z AUTO 00000KT M08/M21 A2993 RMK AO1 SLP159
T10781206 11072 21083 56026





000
SAUS41 KPHI 242259
MTRACY
METAR KACY 242254Z 14007KT 10SM BKN110 M07/M11 A3002 RMK AO2 SLP166
T10671111





000
SAUS41 KPHI 242255
MTR12N
METAR K12N 242254Z AUTO VRB05KT M08/M21 A2993 RMK AO1 SLP159
T10781211





    US Dept of Commerce
    National Oceanic and Atmospheric Administration
    National Weather Service
    1325 East West Highway
    Silver Spring, MD 20910
    Page Author: NWS Internet Services Team
Disclaimer
Information Quality
Credits
Glossary
Privacy Policy
Freedom of Information Act (FOIA)
About Us
Career Opportunities